Time;durP1;ratioP1;P1;durP2;ratioP2;P2;SDS_P1;SDS_P2;PMS_P1;PMS_P2;Temp;Humidity;BMP_temperature;BMP_pressure;BME280_temperature;BME280_humidity;BME280_pressure;Samples;Min_cycle;Max_cycle;Signal;HPM_P1;HPM_P2
2023/03/06 00:01:08;;;;;;;21.25;8.95;;;;;;;1.04;100.00;100765.88;5074789;28;20078;-70
2023/03/06 00:03:34;;;;;;;21.48;9.07;;;;;;;1.04;100.00;100760.66;5074617;28;20032;-70
2023/03/06 00:06:00;;;;;;;22.38;9.20;;;;;;;1.08;100.00;100758.19;5074663;28;20093;-66
2023/03/06 00:08:27;;;;;;;20.98;9.23;;;;;;;1.05;100.00;100748.56;5074650;28;20115;-65
2023/03/06 00:10:53;;;;;;;21.88;9.23;;;;;;;1.04;100.00;100746.78;5074399;28;20487;-68
2023/03/06 00:13:18;;;;;;;21.65;9.25;;;;;;;1.01;100.00;100742.31;5074566;28;20033;-66
2023/03/06 00:15:45;;;;;;;21.33;9.38;;;;;;;0.99;100.00;100748.28;5074372;28;20021;-65
2023/03/06 00:18:10;;;;;;;21.20;9.35;;;;;;;0.98;100.00;100736.97;5074293;28;20026;-66
2023/03/06 00:20:38;;;;;;;21.60;9.05;;;;;;;0.96;100.00;100743.84;5074456;28;20043;-66
2023/03/06 00:23:03;;;;;;;22.15;9.65;;;;;;;0.98;100.00;100743.91;5074489;28;20491;-66
2023/03/06 00:25:29;;;;;;;21.55;9.40;;;;;;;1.00;100.00;100734.44;5072752;28;20036;-67
2023/03/06 00:27:55;;;;;;;21.67;9.77;;;;;;;0.97;100.00;100730.00;5074369;28;20107;-67
2023/03/06 00:30:22;;;;;;;21.25;9.63;;;;;;;0.96;100.00;100730.84;5074080;28;20372;-67
2023/03/06 00:32:48;;;;;;;22.77;10.10;;;;;;;0.96;100.00;100728.25;5074042;28;20110;-67
2023/03/06 00:35:14;;;;;;;21.95;9.68;;;;;;;0.93;100.00;100728.06;5074140;28;20083;-66
2023/03/06 00:37:40;;;;;;;22.58;10.23;;;;;;;0.91;100.00;100723.66;5074198;28;20367;-67
2023/03/06 00:40:08;;;;;;;24.05;10.45;;;;;;;0.85;100.00;100724.28;5073900;28;20029;-67
2023/03/06 00:42:33;;;;;;;23.92;10.98;;;;;;;0.86;100.00;100720.88;5072980;28;20026;-67
2023/03/06 00:44:59;;;;;;;22.25;9.85;;;;;;;0.82;100.00;100713.75;5073692;28;20122;-66
2023/03/06 00:47:24;;;;;;;23.48;11.00;;;;;;;0.81;100.00;100715.44;5073586;28;20033;-66
2023/03/06 00:49:49;;;;;;;23.67;11.65;;;;;;;0.78;100.00;100714.44;5073898;28;20384;-66
2023/03/06 00:52:15;;;;;;;23.83;11.45;;;;;;;0.74;100.00;100707.31;5073648;28;20094;-67
2023/03/06 00:54:40;;;;;;;24.10;11.70;;;;;;;0.71;100.00;100707.22;5073829;28;20041;-65
2023/03/06 00:57:06;;;;;;;24.33;12.13;;;;;;;0.70;100.00;100708.94;5073772;28;20028;-67
2023/03/06 00:59:31;;;;;;;24.48;11.77;;;;;;;0.63;100.00;100699.97;5073364;28;20029;-65
2023/03/06 01:01:57;;;;;;;25.38;12.00;;;;;;;0.54;100.00;100694.38;5073437;28;20036;-66
2023/03/06 01:04:23;;;;;;;24.08;12.18;;;;;;;0.45;100.00;100692.28;5073523;28;20032;-69
2023/03/06 01:06:48;;;;;;;24.08;12.50;;;;;;;0.39;100.00;100693.72;5073173;28;20057;-66
2023/03/06 01:09:13;;;;;;;25.13;12.68;;;;;;;0.30;100.00;100695.09;5073673;28;20025;-66
2023/03/06 01:11:39;;;;;;;25.98;13.13;;;;;;;0.21;100.00;100697.28;5073532;28;20028;-66
2023/03/06 01:14:05;;;;;;;25.65;12.88;;;;;;;0.13;100.00;100694.38;5073135;28;20025;-67
2023/03/06 01:16:30;;;;;;;27.08;13.40;;;;;;;0.04;100.00;100693.06;5073433;28;20029;-66
2023/03/06 01:18:56;;;;;;;24.90;13.23;;;;;;;-0.07;100.00;100696.06;5073042;28;20032;-67
2023/03/06 01:21:21;;;;;;;25.60;12.73;;;;;;;-0.16;100.00;100689.56;5073094;28;20074;-66
2023/03/06 01:23:47;;;;;;;27.98;13.95;;;;;;;-0.17;100.00;100699.06;5073332;28;20030;-68
2023/03/06 01:26:13;;;;;;;27.17;14.68;;;;;;;-0.16;100.00;100694.75;5069009;28;20062;-66
2023/03/06 01:28:39;;;;;;;26.80;13.85;;;;;;;-0.25;100.00;100688.34;5072960;28;20021;-68
2023/03/06 01:31:06;;;;;;;26.10;13.93;;;;;;;-0.30;100.00;100687.22;5073110;28;20028;-67
2023/03/06 01:33:31;;;;;;;26.73;14.43;;;;;;;-0.33;100.00;100681.91;5072913;28;20067;-67
2023/03/06 01:35:57;;;;;;;28.20;13.82;;;;;;;-0.39;100.00;100682.50;5072877;28;20052;-66
2023/03/06 01:38:22;;;;;;;26.50;14.25;;;;;;;-0.43;100.00;100680.56;5073041;28;20024;-70
2023/03/06 01:40:47;;;;;;;26.38;14.27;;;;;;;-0.48;100.00;100684.69;5072792;28;20025;-66
2023/03/06 01:43:28;;;;;;;27.13;15.20;;;;;;;-0.50;100.00;100682.81;5072664;28;20504;-70
2023/03/06 01:46:24;;;;;;;27.75;15.13;;;;;;;-0.52;100.00;100674.97;5070236;28;20115;-70
2023/03/06 01:48:56;;;;;;;27.88;15.52;;;;;;;-0.60;100.00;100676.31;5069462;28;20505;-70
2023/03/06 01:51:26;;;;;;;28.17;14.68;;;;;;;-0.60;100.00;100666.78;5072786;28;20108;-69
2023/03/06 01:53:52;;;;;;;28.38;15.35;;;;;;;-0.63;100.00;100668.38;5072570;28;20104;-70
2023/03/06 01:56:18;;;;;;;29.85;16.00;;;;;;;-0.66;100.00;100663.91;5072600;28;20033;-69
2023/03/06 01:58:45;;;;;;;28.65;15.07;;;;;;;-0.70;100.00;100664.59;5072749;28;20099;-71
2023/03/06 02:01:13;;;;;;;29.13;15.77;;;;;;;-0.74;100.00;100665.28;5072667;28;20029;-72
2023/03/06 02:03:40;;;;;;;28.77;15.75;;;;;;;-0.80;100.00;100662.38;5072774;28;20033;-71
2023/03/06 02:06:06;;;;;;;31.00;16.35;;;;;;;-0.88;100.00;100656.84;5072702;28;20123;-69
2023/03/06 02:08:32;;;;;;;29.25;15.57;;;;;;;-0.89;100.00;100653.38;5072616;28;20025;-72
2023/03/06 02:11:09;;;;;;;28.98;15.40;;;;;;;-0.95;100.00;100652.16;5072412;28;20040;-69
2023/03/06 02:13:36;;;;;;;29.80;15.38;;;;;;;-0.90;100.00;100648.09;5072408;28;20036;-70
2023/03/06 02:16:01;;;;;;;29.65;15.38;;;;;;;-0.93;100.00;100647.97;5072574;28;20033;-69
2023/03/06 02:18:28;;;;;;;28.30;14.90;;;;;;;-1.00;100.00;100644.16;5072374;28;20024;-70
2023/03/06 02:20:58;;;;;;;30.25;15.82;;;;;;;-0.94;100.00;100643.56;5072350;28;20032;-70
2023/03/06 02:23:30;;;;;;;30.38;16.35;;;;;;;-0.91;100.00;100638.53;5072606;28;20031;-69
2023/03/06 02:25:58;;;;;;;32.63;16.65;;;;;;;-0.88;100.00;100633.47;5072441;28;20030;-69
2023/03/06 02:28:24;;;;;;;30.17;15.70;;;;;;;-0.89;100.00;100631.69;5072362;28;20028;-66
2023/03/06 02:30:52;;;;;;;31.50;16.52;;;;;;;-0.90;100.00;100636.00;5072346;28;20032;-66
2023/03/06 02:33:20;;;;;;;29.77;15.63;;;;;;;-0.94;100.00;100628.00;5071134;28;20395;-66
2023/03/06 02:36:08;;;;;;;30.58;15.80;;;;;;;-0.97;100.00;100625.28;5068416;28;20108;-65
2023/03/06 02:38:42;;;;;;;30.98;16.48;;;;;;;-0.97;100.00;100622.66;5070494;28;20098;-65
2023/03/06 02:41:08;;;;;;;31.63;16.45;;;;;;;-0.99;100.00;100613.91;5072103;28;20028;-65
2023/03/06 02:43:39;;;;;;;32.70;16.33;;;;;;;-0.97;100.00;100617.47;5072116;28;20084;-66
2023/03/06 02:46:05;;;;;;;31.75;15.60;;;;;;;-0.99;100.00;100613.91;5072152;28;20028;-66
2023/03/06 02:48:31;;;;;;;31.42;15.82;;;;;;;-1.03;100.00;100606.78;5071985;28;20383;-65
2023/03/06 02:50:56;;;;;;;30.10;15.25;;;;;;;-1.10;100.00;100608.22;5072177;28;20055;-65
2023/03/06 02:53:22;;;;;;;31.00;15.88;;;;;;;-1.14;100.00;100608.88;5072018;28;20040;-65
2023/03/06 02:55:49;;;;;;;31.77;15.63;;;;;;;-1.23;100.00;100607.63;5071956;28;20025;-66
2023/03/06 02:58:14;;;;;;;32.72;16.65;;;;;;;-1.24;100.00;100602.34;5068145;28;20075;-65
2023/03/06 03:00:40;;;;;;;32.60;16.13;;;;;;;-1.31;100.00;100606.38;5071892;28;20052;-65
2023/03/06 03:03:06;;;;;;;32.08;15.55;;;;;;;-1.34;100.00;100603.63;5071933;28;20116;-65
2023/03/06 03:05:31;;;;;;;31.67;15.55;;;;;;;-1.34;100.00;100601.03;5073840;28;20424;-66
2023/03/06 03:07:57;;;;;;;32.42;15.70;;;;;;;-1.39;100.00;100596.44;5075765;28;20028;-68
2023/03/06 03:10:23;;;;;;;30.45;15.45;;;;;;;-1.41;100.00;100599.84;5075710;28;20163;-67
2023/03/06 03:12:49;;;;;;;32.50;16.55;;;;;;;-1.48;100.00;100592.56;5077907;28;20025;-67
2023/03/06 03:15:14;;;;;;;31.05;14.95;;;;;;;-1.53;100.00;100594.06;5092010;28;20028;-64
2023/03/06 03:17:40;;;;;;;31.05;15.30;;;;;;;-1.60;100.00;100586.81;5093354;28;20055;-65
2023/03/06 03:20:10;;;;;;;32.22;16.08;;;;;;;-1.64;100.00;100590.06;5094552;28;20044;-65
2023/03/06 03:22:35;;;;;;;33.15;15.70;;;;;;;-1.69;100.00;100584.66;5086288;28;20023;-65
2023/03/06 03:25:02;;;;;;;32.05;15.88;;;;;;;-1.69;100.00;100592.44;5084924;28;20032;-66
2023/03/06 03:27:28;;;;;;;31.95;15.82;;;;;;;-1.73;100.00;100589.56;5085869;28;20032;-66
2023/03/06 03:29:56;;;;;;;33.95;16.98;;;;;;;-1.76;100.00;100590.34;5084017;28;20029;-65
2023/03/06 03:32:21;;;;;;;34.33;16.77;;;;;;;-1.73;100.00;100584.41;5078689;28;20032;-77
2023/03/06 03:34:47;;;;;;;34.10;17.73;;;;;;;-1.69;100.00;100576.88;5075776;28;20031;-75
2023/03/06 03:37:12;;;;;;;36.67;17.90;;;;;;;-1.66;100.00;100569.25;5075405;28;20033;-73
2023/03/06 03:39:37;;;;;;;35.67;17.73;;;;;;;-1.65;100.00;100568.41;5075090;28;20111;-66
2023/03/06 03:42:03;;;;;;;36.20;17.67;;;;;;;-1.66;100.00;100570.94;5073985;28;20064;-66
2023/03/06 03:44:28;;;;;;;38.33;17.80;;;;;;;-1.64;100.00;100569.31;5074796;28;20656;-67
2023/03/06 03:46:53;;;;;;;37.88;18.10;;;;;;;-1.64;100.00;100565.00;5075041;28;20501;-69
2023/03/06 03:49:19;;;;;;;37.97;18.15;;;;;;;-1.60;100.00;100561.75;5075370;28;20055;-69
2023/03/06 03:51:44;;;;;;;40.88;20.00;;;;;;;-1.54;100.00;100557.66;5074894;28;20029;-67
2023/03/06 03:54:09;;;;;;;41.17;19.75;;;;;;;-1.48;100.00;100556.28;5075048;28;20036;-67
2023/03/06 03:56:35;;;;;;;42.40;20.85;;;;;;;-1.44;100.00;100547.84;5074741;28;20032;-66
2023/03/06 03:59:00;;;;;;;42.08;20.63;;;;;;;-1.41;100.00;100545.38;5074676;28;20099;-67
2023/03/06 04:01:26;;;;;;;44.53;20.60;;;;;;;-1.34;100.00;100541.38;5074876;28;20111;-68
2023/03/06 04:03:51;;;;;;;44.35;21.10;;;;;;;-1.35;100.00;100547.38;5074629;28;20110;-66
2023/03/06 04:06:17;;;;;;;46.30;22.33;;;;;;;-1.32;100.00;100541.47;5074597;28;20478;-66
2023/03/06 04:08:42;;;;;;;47.08;23.48;;;;;;;-1.32;100.00;100534.56;5074734;28;20048;-67
2023/03/06 04:11:08;;;;;;;47.90;23.67;;;;;;;-1.32;100.00;100538.88;5074484;28;20078;-66
2023/03/06 04:13:33;;;;;;;49.28;23.38;;;;;;;-1.34;100.00;100537.88;5074385;28;20020;-66
2023/03/06 04:15:59;;;;;;;52.22;25.00;;;;;;;-1.33;100.00;100537.09;5073521;28;20102;-66
2023/03/06 04:18:24;;;;;;;53.58;26.17;;;;;;;-1.33;100.00;100535.38;5074371;28;20425;-67
2023/03/06 04:20:50;;;;;;;52.80;25.67;;;;;;;-1.42;100.00;100546.19;5074364;28;20024;-67
2023/03/06 04:23:16;;;;;;;52.80;25.15;;;;;;;-1.46;100.00;100536.47;5074466;28;20024;-68
2023/03/06 04:25:43;;;;;;;53.95;26.00;;;;;;;-1.45;100.00;100538.25;5074060;28;20063;-68
2023/03/06 04:28:08;;;;;;;57.45;27.40;;;;;;;-1.41;100.00;100532.41;5074576;28;20028;-67
2023/03/06 04:30:34;;;;;;;56.20;26.40;;;;;;;-1.37;100.00;100529.97;5074214;28;20544;-66
2023/03/06 04:32:59;;;;;;;59.15;28.20;;;;;;;-1.30;100.00;100530.31;5073999;28;20032;-67
2023/03/06 04:35:25;;;;;;;59.03;28.60;;;;;;;-1.22;100.00;100528.09;5074221;28;20141;-66
2023/03/06 04:37:51;;;;;;;60.85;28.45;;;;;;;-1.19;100.00;100517.88;5073985;28;20028;-66
2023/03/06 04:40:20;;;;;;;59.55;29.88;;;;;;;-1.21;100.00;100524.66;5073910;28;20039;-66
2023/03/06 04:42:46;;;;;;;61.92;30.20;;;;;;;-1.18;100.00;100519.66;5070126;28;20109;-66
2023/03/06 04:45:11;;;;;;;60.25;29.55;;;;;;;-1.20;100.00;100521.28;5073563;28;20128;-67
2023/03/06 04:47:37;;;;;;;62.20;30.88;;;;;;;-1.17;100.00;100517.94;5073637;28;20486;-73
2023/03/06 04:50:03;;;;;;;63.90;31.27;;;;;;;-1.15;100.00;100514.59;5073850;28;20119;-68
2023/03/06 04:52:28;;;;;;;60.40;29.58;;;;;;;-1.11;100.00;100515.63;5072452;28;20053;-70
2023/03/06 04:54:54;;;;;;;61.30;29.52;;;;;;;-1.06;100.00;100514.13;5073650;28;20510;-66
2023/03/06 04:57:19;;;;;;;61.33;30.52;;;;;;;-1.02;100.00;100516.06;5073841;28;20103;-69
2023/03/06 04:59:44;;;;;;;64.20;30.77;;;;;;;-1.00;100.00;100504.03;5069461;28;20033;-65
2023/03/06 05:02:10;;;;;;;65.22;30.42;;;;;;;-1.01;100.00;100512.63;5073392;28;20031;-69
2023/03/06 05:04:35;;;;;;;62.10;31.50;;;;;;;-0.99;100.00;100512.69;5073774;28;20528;-66
2023/03/06 05:07:01;;;;;;;62.63;31.33;;;;;;;-0.99;100.00;100518.78;5073397;28;20032;-66
2023/03/06 05:09:26;;;;;;;61.05;30.23;;;;;;;-0.94;100.00;100508.63;5073254;28;20036;-66
2023/03/06 05:11:52;;;;;;;69.63;33.13;;;;;;;-0.91;100.00;100509.63;5072349;28;20035;-68
2023/03/06 05:14:17;;;;;;;65.68;33.58;;;;;;;-0.89;100.00;100514.88;5073486;28;20024;-76
2023/03/06 05:16:43;;;;;;;67.47;33.63;;;;;;;-0.85;100.00;100510.75;5073403;28;20376;-70
2023/03/06 05:19:08;;;;;;;68.63;32.67;;;;;;;-0.82;100.00;100497.91;5073314;28;20112;-68
2023/03/06 05:21:33;;;;;;;65.32;32.63;;;;;;;-0.81;100.00;100495.38;5073078;28;20077;-65
2023/03/06 05:23:59;;;;;;;65.25;32.78;;;;;;;-0.79;100.00;100500.63;5073261;28;20064;-67
2023/03/06 05:26:24;;;;;;;64.88;32.53;;;;;;;-0.79;100.00;100495.44;5072990;28;20116;-65
2023/03/06 05:28:49;;;;;;;64.43;32.40;;;;;;;-0.77;100.00;100496.38;5072547;28;20528;-66
2023/03/06 05:31:15;;;;;;;64.80;33.50;;;;;;;-0.75;100.00;100495.63;5073498;28;20063;-68
2023/03/06 05:33:40;;;;;;;65.00;33.08;;;;;;;-0.72;100.00;100494.88;5072891;28;20028;-67
2023/03/06 05:36:08;;;;;;;63.83;32.65;;;;;;;-0.71;100.00;100488.88;5072762;28;20024;-67
2023/03/06 05:38:33;;;;;;;63.28;33.35;;;;;;;-0.69;100.00;100488.94;5073049;28;20063;-66
2023/03/06 05:40:59;;;;;;;63.17;32.33;;;;;;;-0.68;100.00;100481.22;5072729;28;20113;-66
2023/03/06 05:43:24;;;;;;;62.70;32.83;;;;;;;-0.65;100.00;100486.56;5072534;28;20889;-69
2023/03/06 05:45:51;;;;;;;62.17;33.30;;;;;;;-0.64;100.00;100483.16;5073002;28;20033;-66
2023/03/06 05:48:17;;;;;;;64.47;32.40;;;;;;;-0.63;100.00;100486.63;5069163;28;20036;-66
2023/03/06 05:50:42;;;;;;;61.53;32.38;;;;;;;-0.61;100.00;100487.56;5072554;28;20029;-66
2023/03/06 05:53:08;;;;;;;59.40;32.15;;;;;;;-0.60;100.00;100490.22;5073100;28;20427;-66
2023/03/06 05:55:33;;;;;;;63.47;32.47;;;;;;;-0.59;100.00;100475.53;5072485;28;20033;-66
2023/03/06 05:57:59;;;;;;;59.90;32.10;;;;;;;-0.60;100.00;100474.63;5072471;28;20028;-68
2023/03/06 06:00:24;;;;;;;63.40;32.92;;;;;;;-0.57;100.00;100479.09;5072941;28;20029;-68
2023/03/06 06:02:49;;;;;;;61.45;32.03;;;;;;;-0.58;100.00;100467.81;5072473;28;20028;-66
2023/03/06 06:05:15;;;;;;;63.45;32.63;;;;;;;-0.57;100.00;100484.28;5072627;28;20024;-67
2023/03/06 06:07:41;;;;;;;59.53;31.55;;;;;;;-0.55;100.00;100486.13;5072353;28;20491;-67
2023/03/06 06:10:07;;;;;;;60.50;31.58;;;;;;;-0.53;100.00;100486.19;5072460;28;20038;-66
2023/03/06 06:12:33;;;;;;;60.30;32.63;;;;;;;-0.54;100.00;100484.41;5072560;28;20476;-66
2023/03/06 06:14:58;;;;;;;59.95;32.63;;;;;;;-0.52;100.00;100482.78;5072374;28;20029;-66
2023/03/06 06:17:23;;;;;;;60.65;31.85;;;;;;;-0.51;100.00;100469.00;5072424;28;20028;-66
2023/03/06 06:19:49;;;;;;;61.97;32.80;;;;;;;-0.50;100.00;100480.25;5072592;28;20427;-66
2023/03/06 06:22:14;;;;;;;60.53;32.80;;;;;;;-0.49;100.00;100472.53;5072381;28;20101;-66
2023/03/06 06:24:40;;;;;;;61.63;33.20;;;;;;;-0.47;100.00;100470.88;5072256;28;20679;-66
2023/03/06 06:27:06;;;;;;;58.75;32.05;;;;;;;-0.45;100.00;100473.53;5072431;28;20426;-66
2023/03/06 06:29:31;;;;;;;59.95;32.97;;;;;;;-0.46;100.00;100463.97;5072266;28;20479;-66
2023/03/06 06:31:57;;;;;;;60.40;33.70;;;;;;;-0.42;100.00;100468.50;5072244;28;20463;-66
2023/03/06 06:34:23;;;;;;;58.47;32.17;;;;;;;-0.39;100.00;100471.22;5072720;28;20509;-71
2023/03/06 06:36:50;;;;;;;58.35;31.50;;;;;;;-0.36;100.00;100471.34;5069498;28;20027;-69
2023/03/06 06:39:17;;;;;;;56.28;31.23;;;;;;;-0.32;100.00;100477.53;5066135;28;20056;-71
2023/03/06 06:41:43;;;;;;;57.08;31.55;;;;;;;-0.30;100.00;100478.50;5071475;28;20035;-68
2023/03/06 06:44:14;;;;;;;57.28;30.88;;;;;;;-0.28;100.00;100482.06;5070789;28;20048;-70
2023/03/06 06:46:40;;;;;;;55.60;31.50;;;;;;;-0.26;100.00;100481.31;5079100;28;20036;-66
2023/03/06 06:49:05;;;;;;;59.67;32.33;;;;;;;-0.23;100.00;100473.63;5074910;28;20368;-69
2023/03/06 06:51:34;;;;;;;60.00;33.30;;;;;;;-0.19;100.00;100477.22;5078986;28;20024;-67
2023/03/06 06:53:59;;;;;;;58.47;32.92;;;;;;;-0.17;100.00;100475.59;5075491;28;20024;-68
2023/03/06 06:56:25;;;;;;;58.42;31.85;;;;;;;-0.11;100.00;100477.56;5072946;28;20111;-69
2023/03/06 06:58:55;;;;;;;57.88;32.28;;;;;;;-0.07;100.00;100475.16;5071745;28;20033;-69
2023/03/06 07:01:21;;;;;;;57.85;32.83;;;;;;;0.01;100.00;100474.59;5076867;28;20028;-68
2023/03/06 07:03:47;;;;;;;57.88;31.33;;;;;;;0.04;100.00;100470.38;5071813;28;20150;-69
2023/03/06 07:06:12;;;;;;;59.30;32.53;;;;;;;0.07;100.00;100475.72;5077246;28;20378;-68
2023/03/06 07:08:37;;;;;;;57.45;32.63;;;;;;;0.09;100.00;100481.88;5068379;28;20029;-69
2023/03/06 07:11:13;;;;;;;55.45;31.80;;;;;;;0.10;100.00;100490.56;5070170;28;20044;-69
2023/03/06 07:13:38;;;;;;;61.58;35.22;;;;;;;0.08;100.00;100487.03;5065635;28;20052;-68
2023/03/06 07:16:04;;;;;;;59.75;34.03;;;;;;;0.11;100.00;100481.94;5072650;28;20060;-70
2023/03/06 07:18:29;;;;;;;58.05;32.50;;;;;;;0.14;100.00;100482.94;5074747;28;20032;-68
2023/03/06 07:20:55;;;;;;;59.95;33.47;;;;;;;0.17;100.00;100482.19;5070114;28;20024;-70
2023/03/06 07:23:21;;;;;;;59.83;33.83;;;;;;;0.22;100.00;100485.88;5069596;28;20028;-67
2023/03/06 07:25:46;;;;;;;62.50;35.05;;;;;;;0.23;100.00;100487.63;5070085;28;20556;-66
2023/03/06 07:28:12;;;;;;;63.92;34.83;;;;;;;0.30;100.00;100493.97;5073133;28;20032;-66
2023/03/06 07:30:40;;;;;;;63.97;35.40;;;;;;;0.29;100.00;100485.28;5072572;28;20111;-67
2023/03/06 07:33:05;;;;;;;64.80;35.42;;;;;;;0.30;100.00;100480.97;5069327;28;20029;-67
2023/03/06 07:35:30;;;;;;;65.03;35.22;;;;;;;0.34;100.00;100483.75;5065147;28;20174;-67
2023/03/06 07:37:56;;;;;;;65.85;35.20;;;;;;;0.42;100.00;100477.97;5066484;28;20032;-67
2023/03/06 07:40:23;;;;;;;61.78;34.55;;;;;;;0.49;100.00;100474.78;5070367;28;20050;-67
2023/03/06 07:42:48;;;;;;;68.57;36.78;;;;;;;0.66;100.00;100494.53;5070177;28;20162;-66
2023/03/06 07:45:14;;;;;;;60.53;34.97;;;;;;;0.71;100.00;100481.69;5075305;28;20135;-65
2023/03/06 07:47:39;;;;;;;59.15;34.00;;;;;;;0.82;100.00;100484.72;5065771;28;20028;-64
2023/03/06 07:50:06;;;;;;;60.65;34.95;;;;;;;0.93;100.00;100482.50;5065624;28;20541;-65
2023/03/06 07:52:32;;;;;;;59.30;34.20;;;;;;;0.96;100.00;100486.13;5069596;28;20150;-65
2023/03/06 07:54:57;;;;;;;56.38;32.75;;;;;;;0.99;100.00;100488.84;5074796;28;20047;-65
2023/03/06 07:57:23;;;;;;;55.78;32.72;;;;;;;0.95;100.00;100492.16;5074757;28;20021;-67
2023/03/06 07:59:48;;;;;;;57.70;33.60;;;;;;;0.86;100.00;100486.63;5074868;28;20032;-65
2023/03/06 08:02:13;;;;;;;56.42;31.95;;;;;;;0.87;100.00;100483.16;5074726;28;20178;-70
2023/03/06 08:04:39;;;;;;;58.72;34.72;;;;;;;0.83;100.00;100491.69;5073392;28;20111;-65
2023/03/06 08:07:04;;;;;;;58.83;34.05;;;;;;;0.79;100.00;100488.09;5074743;28;20121;-65
2023/03/06 08:09:30;;;;;;;59.15;32.38;;;;;;;0.85;100.00;100490.91;5074548;28;20033;-73
2023/03/06 08:11:56;;;;;;;61.85;35.38;;;;;;;0.92;100.00;100494.66;5074393;28;20032;-66
2023/03/06 08:14:21;;;;;;;58.42;31.63;;;;;;;0.99;100.00;100491.47;5074702;28;20024;-65
2023/03/06 08:16:48;;;;;;;57.00;33.00;;;;;;;1.12;100.00;100489.28;5074885;28;20044;-65
2023/03/06 08:19:14;;;;;;;55.22;31.25;;;;;;;1.13;100.00;100496.28;5070375;28;20035;-65
2023/03/06 08:21:39;;;;;;;57.65;33.30;;;;;;;1.18;100.00;100502.53;5074779;28;20036;-64
2023/03/06 08:24:05;;;;;;;55.53;32.45;;;;;;;1.19;100.00;100494.81;5074195;28;20501;-67
2023/03/06 08:26:31;;;;;;;56.28;31.60;;;;;;;1.19;100.00;100493.91;5074218;28;20032;-66
2023/03/06 08:28:59;;;;;;;56.97;32.13;;;;;;;1.08;100.00;100495.22;5074597;28;20426;-65
2023/03/06 08:31:26;;;;;;;56.28;31.38;;;;;;;1.12;100.00;100491.91;5074103;28;20029;-64
2023/03/06 08:33:53;;;;;;;54.55;30.63;;;;;;;1.17;100.00;100492.97;5074189;28;20032;-64
2023/03/06 08:36:19;;;;;;;53.90;30.70;;;;;;;1.30;100.00;100495.19;5074243;28;20435;-65
2023/03/06 08:38:44;;;;;;;54.05;31.25;;;;;;;1.53;100.00;100487.28;5074112;28;20036;-65
2023/03/06 08:41:13;;;;;;;51.47;30.33;;;;;;;1.74;100.00;100488.03;5074211;28;20063;-74
2023/03/06 08:43:39;;;;;;;51.80;29.40;;;;;;;2.14;100.00;100492.81;5074181;28;20060;-65
2023/03/06 08:46:04;;;;;;;45.03;26.05;;;;;;;2.20;100.00;100493.00;5073759;28;20041;-66
2023/03/06 08:48:30;;;;;;;44.40;27.08;;;;;;;2.20;100.00;100488.72;5073910;28;20025;-66
2023/03/06 08:50:55;;;;;;;43.75;27.48;;;;;;;2.08;100.00;100488.28;5074352;28;20025;-66
2023/03/06 08:53:21;;;;;;;42.58;25.90;;;;;;;2.02;100.00;100499.41;5080738;28;20048;-65
2023/03/06 08:55:46;;;;;;;43.15;25.73;;;;;;;2.02;100.00;100494.19;5088845;28;20049;-66
2023/03/06 08:58:12;;;;;;;41.15;24.98;;;;;;;2.13;100.00;100496.28;5087536;28;20048;-65
2023/03/06 09:00:38;;;;;;;42.33;26.02;;;;;;;2.27;100.00;100495.00;5088388;28;20047;-65
2023/03/06 09:03:04;;;;;;;38.83;24.15;;;;;;;2.40;100.00;100491.06;5081490;28;20119;-65
2023/03/06 09:05:30;;;;;;;40.00;23.98;;;;;;;2.63;100.00;100499.63;5082458;28;20078;-65
2023/03/06 09:07:56;;;;;;;38.50;22.40;;;;;;;2.68;100.00;100494.53;5082444;28;20035;-66
2023/03/06 09:10:23;;;;;;;38.38;23.55;;;;;;;2.64;100.00;100495.31;5080425;28;20025;-66
2023/03/06 09:12:49;;;;;;;36.50;21.98;;;;;;;2.72;100.00;100489.47;5074641;28;20028;-65
2023/03/06 09:15:15;;;;;;;36.30;22.33;;;;;;;2.76;100.00;100491.31;5073562;28;20095;-65
2023/03/06 09:17:40;;;;;;;37.83;22.45;;;;;;;2.85;100.00;100495.06;5073512;28;20032;-65
2023/03/06 09:20:08;;;;;;;36.65;21.60;;;;;;;2.93;100.00;100491.84;5073063;28;20039;-65
2023/03/06 09:22:34;;;;;;;36.25;21.55;;;;;;;3.00;100.00;100499.84;5071584;28;20021;-65
2023/03/06 09:24:59;;;;;;;34.97;21.67;;;;;;;3.11;100.00;100488.88;5072934;28;20073;-66
2023/03/06 09:27:27;;;;;;;33.75;19.92;;;;;;;3.22;100.00;100501.34;5072674;28;20040;-66
2023/03/06 09:29:52;;;;;;;34.53;21.50;;;;;;;3.21;100.00;100499.59;5072710;28;20119;-66
2023/03/06 09:32:18;;;;;;;36.15;22.13;;;;;;;3.35;100.00;100493.03;5072915;28;20166;-66
2023/03/06 09:34:43;;;;;;;35.15;21.10;;;;;;;3.32;100.00;100500.78;5072842;28;20036;-65
2023/03/06 09:37:08;;;;;;;34.70;20.20;;;;;;;3.29;100.00;100498.97;5073060;28;20031;-66
2023/03/06 09:39:36;;;;;;;32.97;20.83;;;;;;;3.31;100.00;100501.63;5071922;28;20028;-65
2023/03/06 09:42:01;;;;;;;33.92;20.17;;;;;;;3.57;100.00;100501.44;5072807;28;20025;-65
2023/03/06 09:44:30;;;;;;;32.95;20.08;;;;;;;3.66;100.00;100499.09;5072579;28;20097;-66
2023/03/06 09:47:12;;;;;;;33.97;19.65;;;;;;;3.83;100.00;100499.56;5072780;28;20107;-66
2023/03/06 09:50:08;;;;;;;32.72;20.58;;;;;;;3.64;100.00;100503.38;5072863;28;20024;-65
2023/03/06 09:52:52;;;;;;;34.45;20.92;;;;;;;3.62;100.00;100492.00;5065086;28;20029;-65
2023/03/06 09:55:25;;;;;;;35.80;21.58;;;;;;;3.68;100.00;100502.63;5072829;28;20024;-65
2023/03/06 09:58:19;;;;;;;33.05;19.50;;;;;;;3.57;100.00;100498.84;5069228;28;20025;-66
2023/03/06 10:00:57;;;;;;;33.03;19.27;;;;;;;3.59;100.00;100500.66;5072142;28;20486;-65
2023/03/06 10:03:44;;;;;;;32.38;19.95;;;;;;;3.59;100.00;100503.28;5069418;28;20031;-66
2023/03/06 10:06:19;;;;;;;31.92;18.83;;;;;;;3.59;100.00;100505.88;5071464;28;20030;-68
2023/03/06 10:09:04;;;;;;;32.63;19.92;;;;;;;3.66;100.00;100493.88;5072499;28;20039;-68
2023/03/06 10:11:38;;;;;;;29.13;16.70;;;;;;;3.87;100.00;100487.44;5041137;28;20090;-68
2023/03/06 10:14:18;;;;;;;27.85;15.82;;;;;;;3.94;100.00;100485.00;5072172;28;20055;-67
2023/03/06 10:16:44;;;;;;;30.40;16.67;;;;;;;4.05;100.00;100482.69;5072397;28;20115;-70
2023/03/06 10:19:14;;;;;;;30.48;17.42;;;;;;;4.28;100.00;100484.97;5072533;28;20120;-71
2023/03/06 10:22:01;;;;;;;29.48;16.92;;;;;;;4.57;100.00;100490.88;5072550;28;20056;-68
2023/03/06 10:25:08;;;;;;;28.60;15.95;;;;;;;5.24;100.00;100493.22;5069632;28;20527;-70
2023/03/06 10:27:44;;;;;;;27.42;15.55;;;;;;;5.68;100.00;100493.22;5069988;28;20071;-68
2023/03/06 10:30:38;;;;;;;28.00;16.05;;;;;;;5.76;100.00;100483.72;5072560;28;20027;-70
2023/03/06 10:33:40;;;;;;;28.15;16.45;;;;;;;5.52;100.00;100486.78;5070402;28;20133;-70
2023/03/06 10:36:11;;;;;;;25.48;13.82;;;;;;;5.32;100.00;100478.53;5070309;28;20047;-69
2023/03/06 10:38:37;;;;;;;26.30;14.77;;;;;;;5.33;100.00;100482.94;5072208;28;20107;-69
2023/03/06 10:41:11;;;;;;;26.65;14.60;;;;;;;5.32;100.00;100475.91;5072629;28;20578;-69
2023/03/06 10:43:59;;;;;;;28.30;15.55;;;;;;;5.33;100.00;100472.44;5072016;28;20051;-68
2023/03/06 10:46:36;;;;;;;27.88;15.20;;;;;;;5.93;100.00;100485.78;5062179;28;20036;-67
2023/03/06 10:49:22;;;;;;;27.20;15.57;;;;;;;5.73;100.00;100483.66;5072085;28;20025;-71
2023/03/06 10:52:20;;;;;;;26.52;14.55;;;;;;;5.74;100.00;100480.19;5072173;28;20028;-70
2023/03/06 10:54:47;;;;;;;26.73;15.43;;;;;;;5.47;100.00;100479.69;5071671;28;20028;-70
2023/03/06 10:57:33;;;;;;;27.45;14.77;;;;;;;6.03;100.00;100476.34;5071942;28;20031;-68
2023/03/06 11:00:21;;;;;;;25.67;14.05;;;;;;;6.01;100.00;100485.94;5069121;28;20024;-68
2023/03/06 11:03:03;;;;;;;26.58;14.05;;;;;;;5.86;100.00;100482.16;5071913;28;20112;-69
2023/03/06 11:05:28;;;;;;;25.85;14.02;;;;;;;5.92;100.00;100484.00;5067956;28;20029;-70
2023/03/06 11:07:56;;;;;;;25.42;13.75;;;;;;;5.73;100.00;100485.44;5071978;28;20047;-69
2023/03/06 11:10:23;;;;;;;24.88;13.65;;;;;;;5.50;100.00;100488.47;5068333;28;20048;-68